createdAt,value
2019-05-21T00:01:53.479Z,15.47
2019-05-21T00:04:28.400Z,18.47
2019-05-21T00:06:57.753Z,20.73
2019-05-21T00:09:29.072Z,17.43
2019-05-21T00:12:00.566Z,18.53
2019-05-21T00:14:31.896Z,23.10
2019-05-21T00:17:03.179Z,20.10
2019-05-21T00:19:35.469Z,19.43
2019-05-21T00:22:06.717Z,18.70
2019-05-21T00:24:38.143Z,17.63
2019-05-21T00:27:09.763Z,20.13
2019-05-21T00:30:34.262Z,16.97
2019-05-21T00:33:58.926Z,16.83
2019-05-21T00:37:23.886Z,19.50
2019-05-21T00:40:48.707Z,22.37
2019-05-21T00:43:24.981Z,19.83
2019-05-21T00:45:56.389Z,16.60
2019-05-21T00:48:27.777Z,19.93
2019-05-21T00:50:59.206Z,25.43
2019-05-21T00:53:30.606Z,20.70
2019-05-21T00:56:01.997Z,19.33
2019-05-21T00:58:33.411Z,17.40
2019-05-21T01:01:05.106Z,21.63
2019-05-21T01:03:36.486Z,22.50
2019-05-21T01:06:08.989Z,20.27
2019-05-21T01:08:40.343Z,18.87
2019-05-21T01:11:11.791Z,16.70
2019-05-21T01:13:43.141Z,18.90
2019-05-21T01:16:14.591Z,22.97
2019-05-21T01:18:46.100Z,28.10
2019-05-21T01:21:17.566Z,19.10
2019-05-21T01:23:48.953Z,23.20
2019-05-21T01:26:21.317Z,18.97
2019-05-21T01:28:52.758Z,15.47
2019-05-21T01:31:24.112Z,16.97
2019-05-21T01:33:55.494Z,17.80
2019-05-21T01:36:26.810Z,12.87
2019-05-21T01:38:58.246Z,17.10
2019-05-21T01:41:29.595Z,15.00
2019-05-21T01:44:00.957Z,13.97
2019-05-21T01:46:32.329Z,17.00
2019-05-21T01:49:03.765Z,14.57
2019-05-21T01:51:35.176Z,17.23
2019-05-21T01:54:06.539Z,20.77
2019-05-21T01:56:37.972Z,14.80
2019-05-21T01:59:09.328Z,14.60
2019-05-21T02:01:40.739Z,17.27
2019-05-21T02:04:12.119Z,14.33
2019-05-21T02:06:43.673Z,16.73
2019-05-21T02:09:15.121Z,16.97
2019-05-21T02:11:46.495Z,15.40
2019-05-21T02:14:17.905Z,17.67
2019-05-21T02:16:49.312Z,11.57
2019-05-21T02:19:20.795Z,12.60
2019-05-21T02:21:52.166Z,10.53
2019-05-21T02:24:23.579Z,13.40
2019-05-21T02:26:54.951Z,12.17
2019-05-21T02:29:26.398Z,10.57
2019-05-21T02:31:57.732Z,13.73
2019-05-21T02:34:29.126Z,11.80
2019-05-21T02:37:00.452Z,12.13
2019-05-21T02:39:31.813Z,12.27
2019-05-21T02:42:03.196Z,11.43
2019-05-21T02:44:34.585Z,11.20
2019-05-21T02:47:05.972Z,9.53
2019-05-21T02:49:37.417Z,8.77
2019-05-21T02:52:08.856Z,11.43
2019-05-21T02:54:42.114Z,13.87
2019-05-21T02:57:13.597Z,10.53
2019-05-21T02:59:46.667Z,14.23
2019-05-21T03:02:28.414Z,16.27
2019-05-21T03:04:59.853Z,11.43
2019-05-21T03:07:31.253Z,11.07
2019-05-21T03:10:02.734Z,13.20
2019-05-21T03:12:34.146Z,13.43
2019-05-21T03:15:05.796Z,15.53
2019-05-21T03:17:37.273Z,18.50
2019-05-21T03:20:08.913Z,13.93
2019-05-21T03:22:40.302Z,13.70
2019-05-21T03:25:12.335Z,14.67
2019-05-21T03:27:43.689Z,15.33
2019-05-21T03:30:16.065Z,12.70
2019-05-21T03:32:47.521Z,16.37
2019-05-21T03:35:19.189Z,17.50
2019-05-21T03:37:50.627Z,13.43
2019-05-21T03:40:22.061Z,13.27
2019-05-21T03:42:53.457Z,11.93
2019-05-21T03:45:25.887Z,12.87
2019-05-21T03:47:57.337Z,13.43
2019-05-21T03:50:28.731Z,11.47
2019-05-21T03:53:00.136Z,13.23
2019-05-21T03:55:31.584Z,14.67
2019-05-21T03:58:02.963Z,15.80
2019-05-21T04:00:34.418Z,14.83
2019-05-21T04:03:06.140Z,14.53
2019-05-21T04:05:37.567Z,15.50
2019-05-21T04:08:09.025Z,17.00
2019-05-21T04:10:40.478Z,14.27
2019-05-21T04:13:11.961Z,9.20
2019-05-21T04:15:59.152Z,11.40
2019-05-21T04:18:41.702Z,11.40
2019-05-21T04:21:13.150Z,10.03
2019-05-21T04:23:44.715Z,9.43
2019-05-21T04:26:16.161Z,8.37
2019-05-21T04:28:47.925Z,8.93
2019-05-21T04:31:19.395Z,10.10
2019-05-21T04:33:50.929Z,10.03
2019-05-21T04:36:22.459Z,9.60
2019-05-21T04:38:54.010Z,10.43
2019-05-21T04:41:25.426Z,10.27
2019-05-21T04:43:56.904Z,8.87
2019-05-21T04:46:28.486Z,9.70
2019-05-21T04:49:00.051Z,9.97
2019-05-21T04:51:31.619Z,10.13
2019-05-21T04:54:03.138Z,11.37
2019-05-21T04:56:34.705Z,11.43
2019-05-21T04:59:06.313Z,11.50
2019-05-21T05:01:37.795Z,13.47
2019-05-21T05:04:09.475Z,10.87
2019-05-21T05:06:40.976Z,10.03
2019-05-21T05:09:12.550Z,11.73
2019-05-21T05:11:45.436Z,8.37
2019-05-21T05:14:16.833Z,11.37
2019-05-21T05:16:48.279Z,7.03
2019-05-21T05:19:19.815Z,7.27
2019-05-21T05:21:51.157Z,7.57
2019-05-21T05:24:22.651Z,6.23
2019-05-21T05:26:54.108Z,8.60
2019-05-21T05:29:25.671Z,6.20
2019-05-21T05:31:57.183Z,5.70
2019-05-21T05:34:28.615Z,5.17
2019-05-21T05:37:00.136Z,6.60
2019-05-21T05:39:31.685Z,6.33
2019-05-21T05:42:05.646Z,5.87
2019-05-21T05:44:37.139Z,5.10
2019-05-21T05:47:08.544Z,4.87
2019-05-21T05:49:44.122Z,4.27
2019-05-21T05:52:15.534Z,6.23
2019-05-21T05:54:47.094Z,5.07
2019-05-21T05:57:18.546Z,7.03
2019-05-21T05:59:50.079Z,4.00
2019-05-21T06:02:27.183Z,4.93
2019-05-21T06:05:34.417Z,4.47
2019-05-21T06:08:02.496Z,4.23
2019-05-21T06:10:33.926Z,2.97
2019-05-21T06:13:05.280Z,3.20
2019-05-21T06:15:36.757Z,3.27
2019-05-21T06:18:08.214Z,3.03
2019-05-21T06:20:39.626Z,3.00
2019-05-21T06:23:11.007Z,4.23
2019-05-21T06:25:42.410Z,3.77
2019-05-21T06:28:43.571Z,4.17
2019-05-21T06:31:15.002Z,3.70
2019-05-21T06:33:46.382Z,3.13
2019-05-21T06:36:17.837Z,3.10
2019-05-21T06:38:49.156Z,3.37
2019-05-21T06:41:20.690Z,2.43
2019-05-21T06:43:52.048Z,2.20
2019-05-21T06:46:25.269Z,3.57
2019-05-21T06:48:56.659Z,3.33
2019-05-21T06:51:28.158Z,2.00
2019-05-21T06:54:00.509Z,1.70
2019-05-21T06:56:31.929Z,3.00
2019-05-21T06:59:03.308Z,1.77
2019-05-21T07:01:34.787Z,4.23
2019-05-21T07:04:24.512Z,9.30
2019-05-21T07:06:55.972Z,2.13
2019-05-21T07:09:27.352Z,2.10
2019-05-21T07:11:58.752Z,3.20
2019-05-21T07:14:30.142Z,3.53
2019-05-21T07:17:01.568Z,2.13
2019-05-21T07:19:33.090Z,1.70
2019-05-21T07:22:12.846Z,1.77
2019-05-21T07:24:37.569Z,1.37
2019-05-21T07:27:08.986Z,2.67
2019-05-21T07:29:40.382Z,1.80
2019-05-21T07:32:11.798Z,2.53
2019-05-21T07:34:44.243Z,1.93
2019-05-21T07:37:15.740Z,1.53
2019-05-21T07:39:47.215Z,2.10
2019-05-21T07:42:18.877Z,1.37
2019-05-21T07:44:50.339Z,1.37
2019-05-21T07:47:21.760Z,1.33
2019-05-21T07:49:53.165Z,1.40
2019-05-21T07:52:24.603Z,1.20
2019-05-21T07:54:55.993Z,1.20
2019-05-21T07:57:27.427Z,1.30
2019-05-21T07:59:58.870Z,1.40
2019-05-21T08:02:30.331Z,1.90
2019-05-21T08:05:02.370Z,1.20
2019-05-21T08:07:34.082Z,1.27
2019-05-21T08:10:07.106Z,0.63
2019-05-21T08:12:39.849Z,0.80
2019-05-21T08:15:13.155Z,1.50
2019-05-21T08:17:44.695Z,1.33
2019-05-21T08:20:20.782Z,2.30
2019-05-21T08:22:52.243Z,0.87
2019-05-21T08:25:23.740Z,0.50
2019-05-21T08:27:55.307Z,0.40
2019-05-21T08:30:26.675Z,0.50
2019-05-21T08:32:58.198Z,0.47
2019-05-21T08:35:29.628Z,0.30
2019-05-21T08:38:01.169Z,1.97
2019-05-21T08:40:32.583Z,0.50
2019-05-21T08:43:04.036Z,0.43
2019-05-21T08:45:35.363Z,0.97
2019-05-21T08:48:06.871Z,1.10
2019-05-21T08:50:38.278Z,0.33
2019-05-21T08:53:09.664Z,0.33
2019-05-21T08:55:41.084Z,0.30
2019-05-21T08:58:13.513Z,0.30
2019-05-21T09:00:44.977Z,0.57
2019-05-21T09:03:16.421Z,0.40
2019-05-21T09:05:48.961Z,0.20
2019-05-21T09:08:21.330Z,0.10
2019-05-21T09:10:52.792Z,0.40
2019-05-21T09:13:24.256Z,0.73
2019-05-21T09:15:55.754Z,1.43
2019-05-21T09:18:27.219Z,0.20
2019-05-21T09:20:58.644Z,0.73
2019-05-21T09:23:30.147Z,0.43
2019-05-21T09:26:01.520Z,0.40
2019-05-21T09:28:32.961Z,0.30
2019-05-21T09:31:05.717Z,0.70
2019-05-21T09:33:37.154Z,1.03
2019-05-21T09:36:08.664Z,1.00
2019-05-21T09:38:40.014Z,0.40
2019-05-21T09:41:12.598Z,0.20
2019-05-21T09:43:43.987Z,0.30
2019-05-21T09:46:15.503Z,1.23
2019-05-21T09:48:46.907Z,0.93
2019-05-21T09:51:20.222Z,1.40
2019-05-21T09:53:51.461Z,1.30
2019-05-21T09:56:35.192Z,1.27
2019-05-21T09:59:20.971Z,0.40
2019-05-21T10:01:55.300Z,0.33
2019-05-21T10:04:26.647Z,1.17
2019-05-21T10:06:59.101Z,0.37
2019-05-21T10:09:30.538Z,1.53
2019-05-21T10:12:02.157Z,0.83
2019-05-21T10:14:34.376Z,1.90
2019-05-21T10:17:06.051Z,0.73
2019-05-21T10:19:37.482Z,0.47
2019-05-21T10:22:09.270Z,0.60
2019-05-21T10:24:41.011Z,1.80
2019-05-21T10:27:12.555Z,1.43
2019-05-21T10:29:44.016Z,0.40
2019-05-21T10:32:15.450Z,0.50
2019-05-21T10:34:47.083Z,0.40
2019-05-21T10:37:18.554Z,0.77
2019-05-21T10:39:50.173Z,0.50
2019-05-21T10:42:21.599Z,1.00
2019-05-21T10:44:52.997Z,0.57
2019-05-21T10:47:24.504Z,0.40
2019-05-21T10:49:55.955Z,0.90
2019-05-21T10:52:27.427Z,0.50
2019-05-21T10:54:58.857Z,0.70
2019-05-21T10:57:30.284Z,0.40
2019-05-21T11:00:01.912Z,0.30
2019-05-21T11:02:55.280Z,0.27
2019-05-21T11:05:33.421Z,1.17
2019-05-21T11:08:22.778Z,0.83
2019-05-21T11:10:39.105Z,0.67
2019-05-21T11:13:10.518Z,0.20
2019-05-21T11:15:41.890Z,0.67
2019-05-21T11:18:13.329Z,0.20
2019-05-21T11:20:44.720Z,1.20
2019-05-21T11:23:16.135Z,0.60
2019-05-21T11:25:47.497Z,0.40
2019-05-21T11:28:19.072Z,0.30
2019-05-21T11:30:50.586Z,0.80
2019-05-21T11:33:21.905Z,0.30
2019-05-21T11:35:53.259Z,0.20
2019-05-21T11:38:39.091Z,1.07
2019-05-21T11:40:57.847Z,1.00
2019-05-21T11:43:29.306Z,0.20
2019-05-21T11:46:02.992Z,0.30
2019-05-21T11:48:33.932Z,1.60
2019-05-21T11:51:05.360Z,1.77
2019-05-21T11:53:36.907Z,0.60
2019-05-21T11:56:08.323Z,2.97
2019-05-21T11:58:40.177Z,0.33
2019-05-21T12:01:11.608Z,5.40
2019-05-21T12:03:43.030Z,0.80
2019-05-21T12:06:14.427Z,0.43
2019-05-21T12:08:56.355Z,0.40
2019-05-21T12:11:18.989Z,1.67
2019-05-21T12:13:52.154Z,1.57
2019-05-21T12:16:23.581Z,0.50
2019-05-21T12:18:55.068Z,0.90
2019-05-21T12:21:26.608Z,2.37
2019-05-21T12:23:58.055Z,1.27
2019-05-21T12:26:29.469Z,0.60
2019-05-21T12:29:01.038Z,0.87
2019-05-21T12:31:32.366Z,0.60
2019-05-21T12:34:03.754Z,0.53
2019-05-21T12:36:35.190Z,1.30
2019-05-21T12:39:14.174Z,1.10
2019-05-21T12:41:41.043Z,2.10
2019-05-21T12:44:12.403Z,0.93
2019-05-21T12:46:43.801Z,1.63
2019-05-21T12:49:15.160Z,1.60
2019-05-21T12:51:47.679Z,2.07
2019-05-21T12:54:19.021Z,1.33
2019-05-21T12:56:50.331Z,1.57
2019-05-21T12:59:21.810Z,2.57
2019-05-21T13:01:53.135Z,1.90
2019-05-21T13:04:24.542Z,2.40
2019-05-21T13:06:55.963Z,2.77
2019-05-21T13:09:32.660Z,2.63
2019-05-21T13:12:00.342Z,2.93
2019-05-21T13:14:31.719Z,3.50
2019-05-21T13:17:03.084Z,3.67
2019-05-21T13:19:34.473Z,3.90
2019-05-21T13:22:05.942Z,3.90
2019-05-21T13:24:37.329Z,10.47
2019-05-21T13:27:08.690Z,5.10
2019-05-21T13:29:40.085Z,4.83
2019-05-21T13:32:11.477Z,4.37
2019-05-21T13:34:42.860Z,5.67
2019-05-21T13:37:14.540Z,5.20
2019-05-21T13:39:50.184Z,4.60
2019-05-21T13:42:20.254Z,4.90
2019-05-21T13:44:51.606Z,4.23
2019-05-21T13:47:22.953Z,4.80
2019-05-21T13:49:54.354Z,5.67
2019-05-21T13:52:25.734Z,4.80
2019-05-21T13:54:57.086Z,5.23
2019-05-21T13:57:28.444Z,8.07
2019-05-21T13:59:59.919Z,5.63
2019-05-21T14:02:31.383Z,7.13
2019-05-21T14:05:03.264Z,7.97
2019-05-21T14:07:34.852Z,7.00
2019-05-21T14:10:19.424Z,7.70
2019-05-21T14:12:39.975Z,7.63
2019-05-21T14:15:11.709Z,10.63
2019-05-21T14:17:43.087Z,9.03
2019-05-21T14:20:15.255Z,9.57
2019-05-21T14:22:46.588Z,10.63
2019-05-21T14:25:18.195Z,8.67
2019-05-21T14:27:49.521Z,9.77
2019-05-21T14:30:21.151Z,8.83
2019-05-21T14:32:52.681Z,8.87
2019-05-21T14:35:24.066Z,9.23
2019-05-21T14:37:55.447Z,9.57
2019-05-21T14:40:32.226Z,12.17
2019-05-21T14:43:00.945Z,12.47
2019-05-21T14:45:34.149Z,11.63
2019-05-21T14:48:05.976Z,10.73
2019-05-21T14:50:37.336Z,15.20
2019-05-21T14:53:08.854Z,14.50
2019-05-21T14:55:40.272Z,11.00
2019-05-21T14:58:11.651Z,13.57
2019-05-21T15:00:44.011Z,11.70
2019-05-21T15:03:24.822Z,9.83
2019-05-21T15:05:48.558Z,10.33
2019-05-21T15:08:19.940Z,12.97
2019-05-21T15:10:51.289Z,11.33
2019-05-21T15:13:22.655Z,9.57
2019-05-21T15:15:54.057Z,10.77
2019-05-21T15:18:25.426Z,9.93
2019-05-21T15:21:08.134Z,8.77
2019-05-21T15:23:39.741Z,8.50
2019-05-21T15:26:12.717Z,11.63
2019-05-21T15:28:44.119Z,10.10
2019-05-21T15:31:15.489Z,8.17
2019-05-21T15:33:46.865Z,9.70
2019-05-21T15:36:18.281Z,9.60
2019-05-21T15:38:51.184Z,9.30
2019-05-21T15:41:23.670Z,8.33
2019-05-21T15:43:55.048Z,9.80
2019-05-21T15:46:26.573Z,10.77
2019-05-21T15:48:57.971Z,12.63
2019-05-21T15:51:29.322Z,11.03
2019-05-21T15:54:01.172Z,11.13
2019-05-21T15:56:33.664Z,11.63
2019-05-21T15:59:06.010Z,11.67
2019-05-21T16:01:40.542Z,11.43
2019-05-21T16:04:10.749Z,10.77
2019-05-21T16:06:42.097Z,12.30
2019-05-21T16:09:13.551Z,12.73
2019-05-21T16:11:44.888Z,12.47
2019-05-21T16:14:16.286Z,11.10
2019-05-21T16:16:47.654Z,13.97
2019-05-21T16:19:19.031Z,10.57
2019-05-21T16:21:50.385Z,14.23
2019-05-21T16:24:21.719Z,12.63
2019-05-21T16:26:57.539Z,12.63
2019-05-21T16:29:29.085Z,13.67
2019-05-21T16:32:02.114Z,12.80
2019-05-21T16:34:33.704Z,13.37
2019-05-21T16:37:08.980Z,15.07
2019-05-21T16:39:40.568Z,14.53
2019-05-21T16:42:19.250Z,13.53
2019-05-21T16:44:50.773Z,17.10
2019-05-21T16:47:22.391Z,18.67
2019-05-21T16:49:53.878Z,19.33
2019-05-21T16:52:25.338Z,18.97
2019-05-21T17:00:12.519Z,19.33
2019-05-21T17:02:55.315Z,20.27
2019-05-21T17:05:26.764Z,19.00
2019-05-21T17:07:58.304Z,22.33
2019-05-21T17:10:29.897Z,24.10
2019-05-21T17:13:01.428Z,18.80
2019-05-21T17:15:33.735Z,21.83
2019-05-21T17:18:06.172Z,25.40
2019-05-21T17:20:37.521Z,24.20
2019-05-21T17:23:08.913Z,23.97
2019-05-21T17:25:41.487Z,22.17
2019-05-21T17:28:12.866Z,28.13
2019-05-21T17:30:44.251Z,23.20
2019-05-21T17:33:15.712Z,24.30
2019-05-21T17:35:47.065Z,24.70
2019-05-21T17:38:18.459Z,19.63
2019-05-21T17:40:49.822Z,23.67
2019-05-21T17:43:21.238Z,27.63
2019-05-21T17:45:52.928Z,22.07
2019-05-21T17:48:24.561Z,17.43
2019-05-21T17:50:55.934Z,23.80
2019-05-21T17:53:27.327Z,20.50
2019-05-21T17:55:58.699Z,20.27
2019-05-21T17:58:30.073Z,21.63
2019-05-21T18:01:03.612Z,25.33
2019-05-21T18:03:35.032Z,23.07
2019-05-21T18:06:08.086Z,17.90
2019-05-21T18:08:40.274Z,18.67
2019-05-21T18:11:12.255Z,21.60
2019-05-21T18:13:47.771Z,19.40
2019-05-21T18:16:17.581Z,19.27
2019-05-21T18:18:49.224Z,20.10
2019-05-21T18:21:20.781Z,17.90
2019-05-21T18:23:52.407Z,18.70
2019-05-21T18:26:23.809Z,16.33
2019-05-21T18:29:00.382Z,19.57
2019-05-21T18:31:31.996Z,18.67
2019-05-21T18:34:03.549Z,19.10
2019-05-21T18:36:35.432Z,18.27
2019-05-21T18:43:07.472Z,19.90
2019-05-21T18:45:39.247Z,17.47
2019-05-21T18:48:10.924Z,19.33
2019-05-21T18:50:42.664Z,24.20
2019-05-21T18:53:14.302Z,21.17
2019-05-21T18:55:45.849Z,17.47
2019-05-21T18:58:17.900Z,17.07
2019-05-21T19:00:49.658Z,18.00
2019-05-21T19:03:25.859Z,19.43
2019-05-21T19:05:55.593Z,18.03
2019-05-21T19:08:27.151Z,17.00
2019-05-21T19:10:58.732Z,14.83
2019-05-21T19:13:30.431Z,15.50
2019-05-21T19:16:02.034Z,17.60
2019-05-21T19:18:33.713Z,21.10
2019-05-21T19:21:05.599Z,18.97
2019-05-21T19:23:37.255Z,19.17
2019-05-21T19:26:08.785Z,20.83
2019-05-21T19:28:40.613Z,18.83
2019-05-21T19:31:12.847Z,21.37
2019-05-21T19:33:44.585Z,22.40
2019-05-21T19:36:16.573Z,22.00
2019-05-21T19:38:48.334Z,23.87
2019-05-21T19:41:19.989Z,23.43
2019-05-21T19:43:51.583Z,22.83
2019-05-21T19:46:23.239Z,23.80
2019-05-21T19:48:55.040Z,19.87
2019-05-21T19:51:26.732Z,23.10
2019-05-21T19:53:58.333Z,22.20
2019-05-21T19:56:29.839Z,23.80
2019-05-21T19:59:01.612Z,20.93
2019-05-21T20:01:34.683Z,22.70
2019-05-21T20:04:06.822Z,21.77
2019-05-21T20:06:38.552Z,26.50
2019-05-21T20:09:14.797Z,25.60
2019-05-21T20:11:46.676Z,23.43
2019-05-21T20:14:18.300Z,24.33
2019-05-21T20:16:50.004Z,25.90
2019-05-21T20:19:24.080Z,25.27
2019-05-21T20:21:55.593Z,25.67
2019-05-21T20:24:27.215Z,25.57
2019-05-21T20:26:59.034Z,30.60
2019-05-21T20:29:31.136Z,24.17
2019-05-21T20:32:02.794Z,23.70
2019-05-21T20:34:35.203Z,28.57
2019-05-21T20:37:10.035Z,20.50
2019-05-21T20:39:42.503Z,26.03
2019-05-21T20:42:17.944Z,23.23
2019-05-21T20:44:49.685Z,23.87
2019-05-21T20:47:21.137Z,24.43
2019-05-21T20:49:52.939Z,19.87
2019-05-21T20:52:24.496Z,22.83
2019-05-21T20:54:58.240Z,23.83
2019-05-21T20:57:30.738Z,17.77
2019-05-21T21:00:02.266Z,19.43
2019-05-21T21:02:37.492Z,24.03
2019-05-21T21:05:09.866Z,19.30
2019-05-21T21:07:41.783Z,22.87
2019-05-21T21:10:14.540Z,21.10
2019-05-21T21:12:46.053Z,23.27
2019-05-21T21:15:17.651Z,25.50
2019-05-21T21:17:49.084Z,22.93
2019-05-21T21:20:20.983Z,21.27
2019-05-21T21:22:53.732Z,22.10
2019-05-21T21:25:26.221Z,20.83
2019-05-21T21:27:57.685Z,19.57
2019-05-21T21:30:29.212Z,26.80
2019-05-21T21:33:01.114Z,25.37
2019-05-21T21:35:34.163Z,27.60
2019-05-21T21:38:07.318Z,21.00
2019-05-21T21:40:39.027Z,23.03
2019-05-21T21:43:10.635Z,20.67
2019-05-21T21:45:42.094Z,24.43
2019-05-21T21:48:14.888Z,25.03
2019-05-21T21:50:46.983Z,23.77
2019-05-21T21:53:18.906Z,21.03
2019-05-21T21:55:50.465Z,18.70
2019-05-21T21:58:21.819Z,27.70
2019-05-21T22:01:32.704Z,24.03
2019-05-21T22:04:06.931Z,22.23
2019-05-21T22:06:41.741Z,17.67
2019-05-21T22:09:27.191Z,22.67
2019-05-21T22:11:59.992Z,24.07
2019-05-21T22:14:32.556Z,21.53
2019-05-21T22:17:04.282Z,23.37
2019-05-21T22:19:36.000Z,23.17
2019-05-21T22:26:08.136Z,20.33
2019-05-21T22:28:39.598Z,22.77
2019-05-21T22:31:10.957Z,23.23
2019-05-21T22:33:42.403Z,21.80
2019-05-21T22:36:14.012Z,25.13
2019-05-21T22:38:45.445Z,25.20
2019-05-21T22:41:17.012Z,29.90
2019-05-21T22:43:49.424Z,23.63
2019-05-21T22:46:20.803Z,26.93
2019-05-21T22:48:52.304Z,24.10
2019-05-21T22:51:25.778Z,27.17
2019-05-21T22:53:56.898Z,30.40
2019-05-21T22:56:28.263Z,26.37
2019-05-21T22:58:59.698Z,25.83
2019-05-21T23:01:32.838Z,30.43
2019-05-21T23:04:04.436Z,32.03
2019-05-21T23:06:35.806Z,30.97
2019-05-21T23:09:09.467Z,30.13
2019-05-21T23:11:40.868Z,33.73
2019-05-21T23:14:12.680Z,30.47
2019-05-21T23:16:45.005Z,33.37
2019-05-21T23:19:30.605Z,31.37
2019-05-21T23:22:07.624Z,38.00
2019-05-21T23:24:39.818Z,31.17
2019-05-21T23:27:13.254Z,34.23
2019-05-21T23:29:44.650Z,38.77
2019-05-21T23:32:16.486Z,33.60
2019-05-21T23:34:48.110Z,37.20
2019-05-21T23:37:21.714Z,39.03
2019-05-21T23:39:54.421Z,33.13
2019-05-21T23:42:29.799Z,32.57
2019-05-21T23:44:59.839Z,42.33
2019-05-21T23:47:31.205Z,35.37
2019-05-21T23:50:02.665Z,42.97
2019-05-21T23:52:37.090Z,39.80
2019-05-21T23:55:08.618Z,37.80
2019-05-21T23:57:40.410Z,28.30
